Tok, AK (99776)

6:15 PM AKDT on August 27, 2015 (GMT -0800)
Turks on the Tundra | | Change Station
CLOSE
Current Station
Personal Weather Station
Location: Tok, AK
Elevation: 1635 ft
Nearby Weather Stations

Elev 1635 ft 63.34 °N, 142.99 °W | Updated 40 minutes ago

Overcast
Overcast
46.8 °F
Feels Like 42 °F
N
11.0
Wind Variable Wind from North
Gusts 28.0 mph

Today
High -- | Low -- °F
--% Chance of Precip.
Yesterday
High -- | Low -- °F
Precip. -- in
6:02 AM 9:02 PM
Waxing Gibbous, 96% visible
Pressure 29.62 in
Visibility 10.0 miles
Clouds Few 2000 ft
Mostly Cloudy 4100 ft
Mostly Cloudy 9500 ft
Overcast 19000 ft
Windchill 42 °F
Dew Point 37 °F
Humidity 68%
Rainfall 0.11 in
Snow Depth Not available.
UV 0 out of 12
Pollen Not available.
Air Quality Not available.
Flu Activity Not available.
METAR PAOR 280153Z 31016G24KT 10SM FEW020 BKN041 BKN095 OVC190 09/01 A2959 RMK AO2 PK WND 31026/0055 SLP030 T00890011
Pressure 29.62 in
Visibility 10.0 miles
Clouds Few 2000 ft
Mostly Cloudy 4100 ft
Mostly Cloudy 9500 ft
Overcast 19000 ft
Windchill 42 °F
Dew Point 37 °F
Humidity 68%
Rainfall 0.11 in
Snow Depth Not available.
UV 0 out of 12
Pollen Not available.
Air Quality Not available.
Flu Activity Not available.
METAR PAOR 280153Z 31016G24KT 10SM FEW020 BKN041 BKN095 OVC190 09/01 A2959 RMK AO2 PK WND 31026/0055 SLP030 T00890011

10-Day Weather Forecast

×

Almanac

Astronomy

Aug. 27, 2015 Rise Set
Actual Time
Civil Twilight
Nautical Twilight
Astronomical Twilight
Moon
Length of Visible Light
Length of Day
Tomorrow will be .
, % of the Moon is Illuminated

Today's Extremes

State Highs State Lows

Community

WunderPhotos

Upload Photos

1,850,301 photos uploaded!

WunderBlogs® & News

Nearby

Air Quality

  Air Quality AQ Index Pollutant
Not available.

Snow Depth

Station Depth Elevation

Earthquake Activity

City Distance Mag. Time & Date
Minimum magnitude displayed is 2.5.

Coastal Water Temperatures

Place Temperature

Stations

Nearby Weather Stations

Station Location Temp. Windchill Dew Point Humidity Wind Precip. Elev Updated Type